Kinsey, Alabama
Current Conditions -  °F | °C
As of 5:53 PM on Wednesday 22 Oct 2014 (Local Time) from KDHN Reporting Station
Clear Clear  
Wind Chill: 66°   Ceiling: Unl
Heat Index: 66°   Visibility: 10mi
Dew Point: 44°   Wind: 6mph
Humidity: 45%   Direction: 30°NNE
Pressure: 30.07"   Gusts: NA
Location:  31.271°N, 85.3923°W
Report Text: KDHN 222253Z 03005KT 10SM CLR 19/07 A3007 RMK AO2 SLP182 T01890067
Loading
Personal Weather Stations






























Interactive Weather Map
Tropical Storm Tracking
New forecast layout! Learn more

10-Day Weather Forecast

Advertisements
Track Severe Weather on mobile